Schaupps, Nebraska
Current Conditions -  °F | °C
As of 9:53 AM on Friday 19 Dec 2014 (Local Time) from KGRI Reporting Station
Haze Haze  
Wind Chill: 23°   Ceiling: 700
Heat Index: 30°   Visibility: 5mi
Dew Point: 27°   Wind: 7mph
Humidity: 88%   Direction: 210°SSW
Pressure: 30.16"   Gusts: NA
Location:  41.3°N, 98.8143°W
Report Text: KGRI 191553Z 21006KT 5SM BR OVC007 M01/M03 A3016 RMK AO2 SLP239 T10111028
Loading
Personal Weather Stations






























Interactive Weather Map New forecast layout! Learn more

10-Day Weather Forecast

Advertisements
Track Severe Weather on mobile